Time;durP1;ratioP1;P1;durP2;ratioP2;P2;SDS_P1;SDS_P2;PMS_P1;PMS_P2;Temp;Humidity;BMP_temperature;BMP_pressure;BME280_temperature;BME280_humidity;BME280_pressure;Samples;Min_cycle;Max_cycle;Signal;HPM_P1;HPM_P2
2023/02/20 00:00:27;;;;;;;11.77;6.88;;;6.10;99.90;;;;;;5078219;28;25118;-75
2023/02/20 00:02:55;;;;;;;11.95;7.00;;;6.10;99.90;;;;;;5077970;28;25057;-75
2023/02/20 00:05:23;;;;;;;11.07;6.32;;;6.10;99.90;;;;;;5077616;28;25055;-75
2023/02/20 00:07:50;;;;;;;12.00;6.40;;;6.00;99.90;;;;;;5077908;28;25199;-75
2023/02/20 00:10:18;;;;;;;9.48;5.63;;;6.00;99.90;;;;;;5076613;28;25085;-75
2023/02/20 00:12:45;;;;;;;10.23;6.40;;;6.00;99.90;;;;;;5077840;28;25106;-75
2023/02/20 00:15:15;;;;;;;9.60;5.55;;;6.00;99.90;;;;;;5076417;28;25092;-75
2023/02/20 00:17:46;;;;;;;10.80;5.07;;;6.00;99.90;;;;;;5075607;28;25070;-75
2023/02/20 00:20:17;;;;;;;8.80;4.07;;;6.00;99.90;;;;;;5077452;28;25071;-75
2023/02/20 00:22:45;;;;;;;8.27;4.30;;;6.00;99.90;;;;;;5077318;28;25124;-75
2023/02/20 00:25:12;;;;;;;6.95;4.78;;;6.00;99.90;;;;;;5077785;28;25093;-75
2023/02/20 00:27:41;;;;;;;7.25;4.55;;;6.00;99.90;;;;;;5076891;28;25077;-75
2023/02/20 00:30:18;;;;;;;8.20;4.45;;;6.00;99.90;;;;;;5077323;28;25072;-75
2023/02/20 00:32:47;;;;;;;7.43;4.85;;;6.00;99.90;;;;;;5076034;28;25062;-75
2023/02/20 00:35:15;;;;;;;12.98;5.57;;;6.00;99.90;;;;;;5077132;28;25085;-75
2023/02/20 00:37:43;;;;;;;7.93;4.68;;;6.00;99.90;;;;;;5092019;28;25132;-75
2023/02/20 00:40:11;;;;;;;7.00;5.05;;;6.00;99.90;;;;;;5079441;28;25111;-75
2023/02/20 00:42:38;;;;;;;7.70;4.90;;;6.00;99.90;;;;;;5097187;28;25111;-75
2023/02/20 00:45:07;;;;;;;8.63;4.80;;;6.00;99.90;;;;;;5096419;28;25135;-75
2023/02/20 00:47:35;;;;;;;11.40;6.43;;;5.90;99.90;;;;;;5097679;28;25081;-75
2023/02/20 00:50:02;;;;;;;10.38;6.13;;;5.90;99.90;;;;;;5079248;28;25119;-75
2023/02/20 00:52:29;;;;;;;11.02;6.90;;;5.90;99.90;;;;;;5097319;28;25087;-75
2023/02/20 00:54:57;;;;;;;12.82;5.57;;;5.90;99.90;;;;;;5097059;28;25056;-75
2023/02/20 00:57:24;;;;;;;10.05;6.35;;;5.90;99.90;;;;;;5096967;28;25075;-75
2023/02/20 00:59:52;;;;;;;11.68;6.93;;;5.90;99.90;;;;;;5079211;28;25075;-75
2023/02/20 01:02:19;;;;;;;11.15;6.60;;;5.90;99.90;;;;;;5097155;28;25077;-75
2023/02/20 01:04:46;;;;;;;10.13;5.10;;;5.90;99.90;;;;;;5097330;28;25076;-75
2023/02/20 01:07:14;;;;;;;9.10;5.55;;;5.90;99.90;;;;;;5078859;28;25053;-75
2023/02/20 01:09:41;;;;;;;10.05;6.25;;;5.90;99.90;;;;;;5078986;28;25052;-75
2023/02/20 01:12:08;;;;;;;10.93;7.10;;;5.90;99.90;;;;;;5096718;28;25082;-75
2023/02/20 01:14:35;;;;;;;11.25;6.97;;;5.90;99.90;;;;;;5096829;28;25102;-75
2023/02/20 01:17:03;;;;;;;11.55;6.70;;;5.90;99.90;;;;;;5096812;28;25081;-75
2023/02/20 01:19:30;;;;;;;11.27;6.30;;;5.90;99.90;;;;;;5096133;28;25079;-75
2023/02/20 01:21:59;;;;;;;12.98;7.47;;;5.90;99.90;;;;;;5078692;28;25065;-75
2023/02/20 01:24:26;;;;;;;11.73;6.85;;;5.80;99.90;;;;;;5096553;28;25118;-75
2023/02/20 01:26:54;;;;;;;13.75;7.88;;;5.80;99.90;;;;;;5096811;28;25131;-75
2023/02/20 01:29:21;;;;;;;15.23;8.57;;;5.90;99.90;;;;;;5078992;28;25067;-75
2023/02/20 01:31:52;;;;;;;13.55;8.68;;;5.90;99.90;;;;;;5078527;28;25049;-75
2023/02/20 01:34:20;;;;;;;17.50;9.52;;;5.80;99.90;;;;;;5096767;28;25123;-75
2023/02/20 01:36:49;;;;;;;16.40;10.55;;;5.90;99.90;;;;;;5096208;28;25065;-75
2023/02/20 01:39:26;;;;;;;15.57;9.18;;;5.90;99.90;;;;;;5096723;28;25065;-75
2023/02/20 01:42:00;;;;;;;15.75;9.52;;;5.90;99.90;;;;;;5096386;28;25075;-75
2023/02/20 01:44:36;;;;;;;15.75;9.50;;;5.90;99.90;;;;;;5078394;28;25066;-75
2023/02/20 01:47:09;;;;;;;15.77;9.45;;;5.90;99.90;;;;;;5078413;28;25111;-74
2023/02/20 01:49:45;;;;;;;16.58;9.50;;;5.90;99.90;;;;;;5096568;28;25083;-75
2023/02/20 01:52:24;;;;;;;16.85;9.02;;;5.90;99.90;;;;;;5076843;28;25113;-75
2023/02/20 01:55:08;;;;;;;15.95;9.15;;;5.80;99.90;;;;;;5078375;28;25055;-75
2023/02/20 01:57:40;;;;;;;17.58;9.70;;;5.90;99.90;;;;;;5096535;28;25071;-75
2023/02/20 02:00:19;;;;;;;22.30;10.48;;;5.80;99.90;;;;;;5096213;28;25062;-75
2023/02/20 02:03:06;;;;;;;17.50;10.00;;;5.80;99.90;;;;;;5078265;28;25064;-75
2023/02/20 02:05:34;;;;;;;;;;;5.80;99.90;;;;;;5078774;28;25052;-75
2023/02/20 02:08:04;;;;;;;15.93;9.23;;;5.80;99.90;;;;;;5094853;28;24063;-75
2023/02/20 02:10:53;;;;;;;18.52;10.85;;;5.80;99.90;;;;;;5078366;28;25064;-75
2023/02/20 02:13:21;;;;;;;23.55;13.18;;;5.80;99.90;;;;;;5078263;28;25104;-75
2023/02/20 02:16:01;;;;;;;23.45;12.93;;;5.70;99.90;;;;;;5096680;28;25090;-75
2023/02/20 02:18:54;;;;;;;18.33;9.85;;;5.70;99.90;;;;;;5078100;28;25065;-75
2023/02/20 02:21:57;;;;;;;17.92;10.52;;;5.70;99.90;;;;;;5097572;28;25107;-75
2023/02/20 02:24:54;;;;;;;18.85;11.35;;;5.60;99.90;;;;;;5078284;28;25041;-75
2023/02/20 02:27:58;;;;;;;19.33;11.57;;;5.70;99.90;;;;;;5099593;28;25042;-75
2023/02/20 02:30:47;;;;;;;19.30;11.35;;;5.70;99.90;;;;;;5100514;28;25085;-75
2023/02/20 02:33:43;;;;;;;16.98;10.15;;;5.70;99.90;;;;;;5100363;28;25083;-75
2023/02/20 02:36:20;;;;;;;21.50;10.18;;;5.60;99.90;;;;;;5068717;28;25070;-75
2023/02/20 02:39:06;;;;;;;18.67;10.40;;;5.70;99.90;;;;;;5099557;28;25065;-75
2023/02/20 02:41:40;;;;;;;20.73;11.23;;;5.60;99.90;;;;;;5081714;28;25101;-75
2023/02/20 02:44:20;;;;;;;16.17;9.27;;;5.60;99.90;;;;;;5099664;28;25101;-75
2023/02/20 02:46:57;;;;;;;18.35;10.07;;;5.60;99.90;;;;;;5099669;28;25118;-75
2023/02/20 02:49:58;;;;;;;18.35;11.23;;;5.60;99.90;;;;;;5099819;28;25093;-75
2023/02/20 02:55:13;;;;;;;19.10;10.68;;;5.60;99.90;;;;;;5099387;28;25158;-75
2023/02/20 02:57:41;;;;;;;18.00;11.32;;;5.60;99.90;;;;;;5098801;28;25058;-75
2023/02/20 03:00:34;;;;;;;18.85;10.27;;;5.60;99.90;;;;;;5099345;28;25061;-75
2023/02/20 03:03:11;;;;;;;16.40;9.23;;;5.60;99.90;;;;;;5081141;28;25048;-75
2023/02/20 03:06:03;;;;;;;17.20;10.07;;;5.70;99.90;;;;;;5099357;28;25056;-75
2023/02/20 03:08:56;;;;;;;18.98;10.05;;;5.70;99.90;;;;;;5099040;28;25095;-74
2023/02/20 03:11:27;;;;;;;18.17;10.05;;;5.70;99.90;;;;;;5099161;28;25070;-74
2023/02/20 03:17:11;;;;;;;15.98;9.00;;;5.70;99.90;;;;;;5099206;28;25059;-75
2023/02/20 03:19:52;;;;;;;17.58;9.77;;;5.70;99.90;;;;;;5099018;28;25135;-75
2023/02/20 03:22:48;;;;;;;19.55;10.95;;;5.70;99.90;;;;;;5099027;28;25087;-75
2023/02/20 03:25:33;;;;;;;22.65;10.88;;;5.70;99.90;;;;;;5080716;28;25073;-75
2023/02/20 03:28:06;;;;;;;17.75;8.63;;;5.80;99.90;;;;;;5098904;28;25118;-75
2023/02/20 03:30:42;;;;;;;17.13;9.55;;;5.80;99.90;;;;;;5099059;28;25053;-74
2023/02/20 03:44:42;;;;;;;15.45;8.68;;;5.90;99.90;;;;;;5098871;28;25094;-74
2023/02/20 03:47:15;;;;;;;15.95;8.45;;;5.90;99.90;;;;;;5080281;28;25096;-75
2023/02/20 03:49:45;;;;;;;16.80;7.45;;;6.00;99.90;;;;;;5098573;28;25077;-74
2023/02/20 03:52:12;;;;;;;12.35;7.20;;;6.00;99.90;;;;;;5080235;28;25111;-75
2023/02/20 03:54:41;;;;;;;13.48;7.47;;;6.10;99.90;;;;;;5098596;28;25064;-75
2023/02/20 03:57:33;;;;;;;15.77;8.27;;;6.10;99.90;;;;;;5098668;28;25123;-74
2023/02/20 04:00:21;;;;;;;11.80;6.72;;;6.10;99.90;;;;;;5080074;28;25065;-74
2023/02/20 04:02:56;;;;;;;15.98;6.70;;;6.10;99.90;;;;;;5079411;28;25072;-74
2023/02/20 04:05:28;;;;;;;16.23;9.13;;;6.10;99.90;;;;;;5099241;28;25151;-74
2023/02/20 04:08:08;;;;;;;15.23;6.95;;;6.20;99.90;;;;;;5097055;28;25133;-74
2023/02/20 04:10:43;;;;;;;13.57;6.65;;;6.20;99.90;;;;;;5079940;28;25105;-75
2023/02/20 04:13:14;;;;;;;14.85;7.50;;;6.20;99.90;;;;;;5097758;28;25047;-74
2023/02/20 04:15:43;;;;;;;10.52;6.00;;;6.30;99.90;;;;;;5097877;28;25066;-74
2023/02/20 04:18:19;;;;;;;14.85;6.68;;;6.30;99.90;;;;;;5079684;28;25162;-74
2023/02/20 04:20:54;;;;;;;15.68;7.40;;;6.40;99.90;;;;;;5079698;28;25096;-74
2023/02/20 04:23:23;;;;;;;13.15;6.65;;;6.40;99.90;;;;;;5097584;28;25074;-75
2023/02/20 04:26:07;;;;;;;18.73;7.80;;;6.40;99.90;;;;;;5079470;28;25059;-75
2023/02/20 04:28:35;;;;;;;9.85;5.82;;;6.40;99.90;;;;;;5079505;28;25095;-74
2023/02/20 04:31:02;;;;;;;15.75;6.53;;;6.40;99.90;;;;;;5097484;28;25095;-75
2023/02/20 04:33:30;;;;;;;13.55;6.93;;;6.40;99.90;;;;;;5097651;28;25050;-75
2023/02/20 04:35:57;;;;;;;14.77;8.00;;;6.40;99.90;;;;;;5096660;28;25058;-75
2023/02/20 04:38:24;;;;;;;13.15;6.43;;;6.40;99.90;;;;;;5077038;28;25054;-75
2023/02/20 04:40:51;;;;;;;13.73;6.75;;;6.40;99.90;;;;;;5059499;28;25080;-74
2023/02/20 04:43:19;;;;;;;16.65;8.23;;;6.40;99.90;;;;;;5059148;28;25108;-74
2023/02/20 04:45:46;;;;;;;18.13;7.45;;;6.40;99.90;;;;;;5076856;28;25079;-74
2023/02/20 04:48:13;;;;;;;16.00;8.57;;;6.40;99.90;;;;;;5076742;28;25069;-74
2023/02/20 04:50:40;;;;;;;12.77;6.15;;;6.40;99.90;;;;;;5077276;28;25106;-74
2023/02/20 04:53:08;;;;;;;13.45;6.00;;;6.40;99.90;;;;;;5076794;28;25072;-74
2023/02/20 04:55:35;;;;;;;13.77;7.10;;;6.40;99.90;;;;;;5076803;28;25056;-74
2023/02/20 04:58:02;;;;;;;12.48;6.60;;;6.40;99.90;;;;;;5059229;28;25057;-74
2023/02/20 05:00:30;;;;;;;11.77;6.30;;;6.40;99.90;;;;;;5076880;28;25129;-74
2023/02/20 05:02:57;;;;;;;13.20;7.25;;;6.50;99.90;;;;;;5076598;28;25119;-74
2023/02/20 05:05:29;;;;;;;13.75;5.80;;;6.50;99.90;;;;;;5076580;28;25125;-74
2023/02/20 05:07:59;;;;;;;14.35;5.88;;;6.50;99.90;;;;;;5058393;28;25113;-74
2023/02/20 05:10:27;;;;;;;15.02;7.10;;;6.50;99.90;;;;;;5077270;28;25066;-74
2023/02/20 05:12:55;;;;;;;8.93;5.03;;;6.60;99.90;;;;;;5076515;28;25078;-74
2023/02/20 05:15:22;;;;;;;11.35;5.50;;;6.50;99.90;;;;;;5076798;28;25066;-74
2023/02/20 05:17:50;;;;;;;11.13;6.07;;;6.50;99.90;;;;;;5076722;28;25064;-74
2023/02/20 05:20:19;;;;;;;14.68;5.35;;;6.50;99.90;;;;;;5075525;28;25099;-74
2023/02/20 05:22:47;;;;;;;11.98;5.53;;;6.60;99.90;;;;;;5075649;28;25088;-74
2023/02/20 05:25:15;;;;;;;16.83;6.22;;;6.50;99.90;;;;;;5058531;28;25125;-74
2023/02/20 05:27:42;;;;;;;12.80;4.75;;;6.60;99.90;;;;;;5058665;28;25062;-74
2023/02/20 05:30:10;;;;;;;12.30;5.25;;;6.60;99.90;;;;;;5076479;28;25061;-74
2023/02/20 05:32:38;;;;;;;9.32;4.72;;;6.60;99.90;;;;;;5076836;28;25115;-74
2023/02/20 05:35:05;;;;;;;10.13;4.78;;;6.60;99.90;;;;;;5076845;28;25073;-74
2023/02/20 05:37:33;;;;;;;12.80;5.90;;;6.60;99.90;;;;;;5089302;28;25105;-74
2023/02/20 05:40:00;;;;;;;11.75;6.10;;;6.60;99.90;;;;;;5078690;28;25054;-74
2023/02/20 05:42:27;;;;;;;15.05;5.68;;;6.60;99.90;;;;;;5096402;28;25120;-74
2023/02/20 05:44:54;;;;;;;10.63;4.53;;;6.60;99.90;;;;;;5096249;28;25127;-74
2023/02/20 05:47:22;;;;;;;9.77;5.50;;;6.60;99.90;;;;;;5077604;28;25074;-74
2023/02/20 05:49:50;;;;;;;9.77;4.80;;;6.60;99.90;;;;;;5078407;28;25074;-75
2023/02/20 05:52:17;;;;;;;10.15;5.03;;;6.60;99.90;;;;;;5078626;28;25111;-74
2023/02/20 05:54:46;;;;;;;7.82;4.18;;;6.60;99.90;;;;;;5078338;28;25078;-74
2023/02/20 05:57:15;;;;;;;9.65;5.00;;;6.60;99.90;;;;;;5096973;28;25153;-75
2023/02/20 05:59:42;;;;;;;14.50;5.75;;;6.50;99.90;;;;;;5097662;28;25068;-74
2023/02/20 06:02:09;;;;;;;8.00;4.20;;;6.50;99.90;;;;;;5100285;28;25139;-75
2023/02/20 06:04:37;;;;;;;11.77;5.35;;;6.50;99.90;;;;;;5099708;28;25057;-74
2023/02/20 06:07:09;;;;;;;9.05;4.85;;;6.50;99.90;;;;;;5082238;28;25103;-74
2023/02/20 06:09:36;;;;;;;10.57;4.47;;;6.50;99.90;;;;;;5100247;28;25112;-74
2023/02/20 06:12:03;;;;;;;14.40;5.50;;;6.50;99.90;;;;;;5100423;28;25053;-74
2023/02/20 06:14:31;;;;;;;14.45;5.97;;;6.50;99.90;;;;;;5100277;28;25130;-74
2023/02/20 06:16:58;;;;;;;13.48;4.97;;;6.50;99.90;;;;;;5099967;28;25068;-74
2023/02/20 06:19:25;;;;;;;9.45;4.97;;;6.50;99.90;;;;;;5100272;28;25059;-74
2023/02/20 06:21:54;;;;;;;11.57;5.00;;;6.50;99.90;;;;;;5100481;28;25057;-76
2023/02/20 06:24:21;;;;;;;10.90;5.15;;;6.50;99.90;;;;;;5081475;28;25060;-74
2023/02/20 06:26:49;;;;;;;12.85;5.30;;;6.50;99.90;;;;;;5099800;28;25077;-74
2023/02/20 06:29:17;;;;;;;13.15;6.38;;;6.40;99.90;;;;;;5100286;28;25066;-74
2023/02/20 06:31:45;;;;;;;12.23;5.40;;;6.50;99.90;;;;;;5099216;28;25076;-74
2023/02/20 06:34:12;;;;;;;13.50;4.85;;;6.40;99.90;;;;;;5099901;28;25063;-74
2023/02/20 06:36:41;;;;;;;9.52;4.90;;;6.40;99.90;;;;;;5099513;28;25076;-73
2023/02/20 06:39:10;;;;;;;8.57;4.30;;;6.40;99.90;;;;;;5099628;28;25125;-74
2023/02/20 06:41:37;;;;;;;9.75;4.85;;;6.40;99.90;;;;;;5099565;28;25072;-74
2023/02/20 06:44:07;;;;;;;13.90;6.65;;;6.40;99.90;;;;;;5099793;28;25059;-73
2023/02/20 06:46:35;;;;;;;9.52;4.50;;;6.40;99.90;;;;;;5099771;28;25113;-73
2023/02/20 06:49:02;;;;;;;14.43;5.40;;;6.30;99.90;;;;;;5099536;28;25071;-73
2023/02/20 06:51:33;;;;;;;10.40;5.20;;;6.40;99.90;;;;;;5099937;28;25081;-73
2023/02/20 06:54:01;;;;;;;9.88;4.60;;;6.40;99.90;;;;;;5081541;28;25080;-73
2023/02/20 06:56:31;;;;;;;10.55;5.53;;;6.50;99.90;;;;;;5099576;28;25136;-73
2023/02/20 06:58:59;;;;;;;9.73;4.95;;;6.50;99.90;;;;;;5099241;28;25133;-73
2023/02/20 07:01:28;;;;;;;12.57;5.13;;;6.50;99.90;;;;;;5099442;28;25100;-73
2023/02/20 07:03:56;;;;;;;8.57;4.70;;;6.50;99.90;;;;;;5099056;28;25060;-73
2023/02/20 07:06:24;;;;;;;13.13;5.97;;;6.50;99.90;;;;;;5099151;28;25109;-73
2023/02/20 07:08:52;;;;;;;17.00;5.70;;;6.50;99.90;;;;;;5099061;28;25065;-73
2023/02/20 07:11:22;;;;;;;9.15;4.72;;;6.50;99.90;;;;;;5098759;28;25062;-72
2023/02/20 07:13:49;;;;;;;11.77;5.97;;;6.60;99.90;;;;;;5099004;28;25048;-73
2023/02/20 07:16:17;;;;;;;10.55;4.53;;;6.60;99.90;;;;;;5099204;28;25100;-80
2023/02/20 07:18:47;;;;;;;11.48;5.43;;;6.60;99.90;;;;;;5099208;28;25075;-78
2023/02/20 07:21:15;;;;;;;12.80;4.63;;;6.60;99.90;;;;;;5099106;28;25077;-77
2023/02/20 07:23:44;;;;;;;10.98;4.78;;;6.60;99.90;;;;;;5080777;28;25089;-77
2023/02/20 07:26:27;;;;;;;12.18;6.13;;;6.60;99.90;;;;;;5098984;28;25052;-77
2023/02/20 07:28:57;;;;;;;14.45;5.57;;;6.70;99.90;;;;;;5080900;28;25138;-76
2023/02/20 07:31:24;;;;;;;11.85;6.15;;;6.70;99.90;;;;;;5080621;28;25066;-80
2023/02/20 07:33:52;;;;;;;13.52;6.30;;;6.70;99.90;;;;;;5098917;28;25113;-79
2023/02/20 07:36:20;;;;;;;15.02;6.88;;;6.70;99.90;;;;;;5098341;28;25119;-78
2023/02/20 07:38:58;;;;;;;16.48;7.43;;;6.80;99.90;;;;;;5098949;28;25095;-78
2023/02/20 07:41:31;;;;;;;13.38;7.40;;;6.80;99.90;;;;;;5098747;28;25047;-79
2023/02/20 07:43:59;;;;;;;10.88;6.45;;;6.80;99.90;;;;;;5080438;28;25074;-82
2023/02/20 07:46:26;;;;;;;13.07;7.55;;;6.80;99.90;;;;;;5080341;28;25132;-81
2023/02/20 07:48:54;;;;;;;14.25;7.38;;;6.80;99.90;;;;;;5080478;28;25097;-82
2023/02/20 07:51:21;;;;;;;19.58;7.35;;;6.80;99.90;;;;;;5080254;28;25074;-81
2023/02/20 07:53:53;;;;;;;15.23;8.80;;;6.80;99.90;;;;;;5098506;28;25046;-82
2023/02/20 07:56:21;;;;;;;17.85;8.75;;;6.80;99.90;;;;;;5080142;28;25100;-80
2023/02/20 07:58:49;;;;;;;20.58;7.97;;;6.80;99.90;;;;;;5079670;28;25053;-81
2023/02/20 08:01:17;;;;;;;14.60;8.18;;;6.90;99.90;;;;;;5098260;28;25075;-87
2023/02/20 08:03:44;;;;;;;21.77;9.25;;;6.90;99.90;;;;;;5098075;28;25054;-86
2023/02/20 08:06:13;;;;;;;16.50;8.30;;;6.90;99.90;;;;;;5080134;28;25048;-83
2023/02/20 08:08:41;;;;;;;18.13;8.45;;;6.90;99.90;;;;;;5097980;28;25070;-84
2023/02/20 08:11:08;;;;;;;26.88;10.43;;;6.90;99.90;;;;;;5098391;28;25056;-86
2023/02/20 08:13:35;;;;;;;16.80;8.70;;;6.90;99.90;;;;;;5080156;28;25128;-87
2023/02/20 08:16:02;;;;;;;24.05;11.10;;;6.90;99.90;;;;;;5079454;28;25160;-87
2023/02/20 08:18:30;;;;;;;19.52;9.40;;;6.90;99.90;;;;;;5098407;28;25108;-89
2023/02/20 08:20:57;;;;;;;19.70;10.27;;;6.90;99.90;;;;;;5080482;28;25049;-89
2023/02/20 08:23:24;;;;;;;19.33;8.68;;;6.80;99.90;;;;;;5079131;28;25061;-89
2023/02/20 08:25:52;;;;;;;14.23;9.13;;;6.80;99.90;;;;;;5080134;28;25058;-90
2023/02/20 08:28:19;;;;;;;18.40;10.23;;;6.80;99.90;;;;;;5080318;28;25062;-91
2023/02/20 08:30:46;;;;;;;17.65;10.02;;;6.80;99.90;;;;;;5080183;28;25057;-82
2023/02/20 08:33:14;;;;;;;15.18;9.00;;;6.80;99.90;;;;;;5097526;28;25140;-82
2023/02/20 08:35:41;;;;;;;19.55;11.40;;;6.80;99.90;;;;;;5079702;28;25065;-83
2023/02/20 08:38:27;;;;;;;18.02;11.20;;;6.90;99.90;;;;;;5097426;28;25132;-81
2023/02/20 08:40:55;;;;;;;24.50;10.98;;;6.90;99.90;;;;;;5097728;28;25140;-82
2023/02/20 08:43:23;;;;;;;20.73;10.93;;;6.90;99.90;;;;;;5097265;28;25128;-83
2023/02/20 08:45:51;;;;;;;43.60;10.75;;;6.90;99.90;;;;;;5097393;28;25065;-84
2023/02/20 08:48:19;;;;;;;25.73;10.65;;;6.90;99.90;;;;;;5079169;28;25070;-84
2023/02/20 08:50:46;;;;;;;21.00;13.70;;;6.90;99.90;;;;;;5079277;28;25073;-84
2023/02/20 08:53:14;;;;;;;24.88;13.02;;;6.90;99.90;;;;;;5079241;28;25096;-83
2023/02/20 08:55:42;;;;;;;18.58;11.85;;;7.00;99.90;;;;;;5079216;28;25108;-81
2023/02/20 08:58:10;;;;;;;22.33;12.23;;;7.00;99.90;;;;;;5078936;28;25072;-81
2023/02/20 09:00:37;;;;;;;25.25;10.95;;;7.00;99.90;;;;;;5096456;28;25072;-81
2023/02/20 09:03:08;;;;;;;21.38;13.18;;;7.10;99.90;;;;;;5078908;28;25033;-81
2023/02/20 09:05:43;;;;;;;23.58;13.60;;;7.10;99.90;;;;;;5096980;28;25066;-81
2023/02/20 09:08:10;;;;;;;25.40;15.60;;;7.10;99.90;;;;;;5078842;28;25140;-81
2023/02/20 09:10:37;;;;;;;25.30;14.10;;;7.00;99.90;;;;;;5097110;28;25121;-81
2023/02/20 09:13:05;;;;;;;23.80;14.50;;;7.10;99.90;;;;;;5096872;28;25135;-84
2023/02/20 09:15:37;;;;;;;25.65;13.90;;;7.20;99.90;;;;;;5097189;28;25115;-79
2023/02/20 09:18:08;;;;;;;24.02;12.63;;;7.20;99.90;;;;;;5078687;28;25125;-84
2023/02/20 09:20:36;;;;;;;26.38;15.15;;;7.20;99.90;;;;;;5079020;28;25128;-82
2023/02/20 09:23:05;;;;;;;21.50;13.73;;;7.20;99.90;;;;;;5078593;28;25060;-81
2023/02/20 09:25:32;;;;;;;24.42;14.57;;;7.20;99.90;;;;;;5096683;28;25071;-82
2023/02/20 09:28:00;;;;;;;25.33;15.00;;;7.20;99.90;;;;;;5096749;28;25111;-82
2023/02/20 09:30:27;;;;;;;31.08;15.70;;;7.20;99.90;;;;;;5096823;28;25089;-82
2023/02/20 09:32:54;;;;;;;32.42;15.02;;;7.20;99.90;;;;;;5096499;28;25094;-82
2023/02/20 09:35:27;;;;;;;25.50;16.75;;;7.20;99.90;;;;;;5078187;28;25062;-79
2023/02/20 09:37:54;;;;;;;28.70;17.30;;;7.20;99.90;;;;;;5096348;28;25074;-77
2023/02/20 09:40:23;;;;;;;27.65;15.13;;;7.20;99.90;;;;;;5096389;28;25076;-77
2023/02/20 09:42:57;;;;;;;29.60;17.55;;;7.10;99.90;;;;;;5096376;28;25053;-77
2023/02/20 09:45:32;;;;;;;26.35;14.30;;;7.10;99.90;;;;;;5078484;28;25115;-77
2023/02/20 09:48:13;;;;;;;26.73;14.60;;;7.00;99.90;;;;;;5078455;28;25110;-80
2023/02/20 09:51:09;;;;;;;22.10;12.45;;;7.10;99.90;;;;;;5078571;28;25108;-80
2023/02/20 09:53:44;;;;;;;27.00;14.87;;;7.10;99.90;;;;;;5077817;28;25059;-80
2023/02/20 09:56:19;;;;;;;28.38;14.90;;;7.10;99.90;;;;;;5096555;28;25123;-80
2023/02/20 09:59:03;;;;;;;23.92;14.18;;;7.10;99.90;;;;;;5078518;28;25057;-80
2023/02/20 10:01:32;;;;;;;24.77;14.68;;;7.20;99.90;;;;;;5096509;28;25098;-80
2023/02/20 10:04:08;;;;;;;24.67;13.70;;;7.20;99.90;;;;;;5096148;28;25105;-80
2023/02/20 10:06:35;;;;;;;22.48;12.82;;;7.20;99.90;;;;;;5078309;28;25054;-80
2023/02/20 10:09:05;;;;;;;25.60;13.85;;;7.20;99.90;;;;;;5078441;28;25119;-79
2023/02/20 10:11:49;;;;;;;23.88;14.00;;;7.30;99.90;;;;;;5096131;28;25056;-78
2023/02/20 10:14:53;;;;;;;27.85;15.32;;;7.30;99.90;;;;;;5078190;28;25131;-80
2023/02/20 10:17:38;;;;;;;22.65;12.50;;;7.40;99.90;;;;;;5078136;28;25094;-79
2023/02/20 10:20:42;;;;;;;22.27;13.02;;;7.50;99.90;;;;;;5096204;28;25098;-80
2023/02/20 10:23:31;;;;;;;32.22;15.77;;;7.50;99.90;;;;;;5095963;28;25075;-80
2023/02/20 10:26:05;;;;;;;26.00;14.27;;;7.50;99.90;;;;;;5078058;28;25117;-81
2023/02/20 10:28:34;;;;;;;25.50;13.02;;;7.50;99.90;;;;;;5078288;28;25110;-81
2023/02/20 10:31:26;;;;;;;22.05;12.80;;;7.50;99.90;;;;;;5078022;28;25050;-80
2023/02/20 10:34:21;;;;;;;30.08;15.60;;;7.40;99.90;;;;;;5096194;28;25097;-84
2023/02/20 10:37:20;;;;;;;25.23;12.98;;;7.40;99.90;;;;;;5095598;28;25128;-83
2023/02/20 10:40:27;;;;;;;24.45;13.85;;;7.40;99.90;;;;;;5096108;28;25159;-81
2023/02/20 10:43:05;;;;;;;30.13;15.77;;;7.30;99.90;;;;;;5078182;28;25116;-77
2023/02/20 10:45:54;;;;;;;26.85;13.45;;;7.20;99.90;;;;;;5096212;28;25133;-78
2023/02/20 10:48:27;;;;;;;37.63;16.00;;;7.10;99.90;;;;;;5098187;28;25073;-83
2023/02/20 10:51:04;;;;;;;26.88;15.65;;;7.10;99.90;;;;;;5099700;28;25063;-80
2023/02/20 10:54:14;;;;;;;26.13;13.40;;;7.10;99.90;;;;;;5081636;28;25141;-82
2023/02/20 10:56:50;;;;;;;25.83;14.23;;;7.10;99.90;;;;;;5099319;28;25074;-81
2023/02/20 10:59:36;;;;;;;28.33;13.68;;;7.20;99.90;;;;;;5081298;28;25047;-79
2023/02/20 11:02:12;;;;;;;24.08;14.10;;;7.20;99.90;;;;;;5081370;28;25072;-79
2023/02/20 11:04:41;;;;;;;27.73;15.25;;;7.20;99.90;;;;;;5099406;28;25077;-79
2023/02/20 11:07:24;;;;;;;22.75;12.48;;;7.20;99.90;;;;;;5099117;28;25068;-80
2023/02/20 11:09:51;;;;;;;28.70;13.82;;;7.30;99.90;;;;;;5081315;28;25124;-79
2023/02/20 11:12:32;;;;;;;22.02;12.50;;;7.30;99.90;;;;;;5099272;28;25098;-79
2023/02/20 11:15:14;;;;;;;30.17;12.50;;;7.20;99.90;;;;;;5098968;28;25077;-79
2023/02/20 11:17:41;;;;;;;24.33;12.93;;;7.20;99.90;;;;;;5099183;28;25067;-80
2023/02/20 11:20:45;;;;;;;26.30;11.63;;;7.10;99.90;;;;;;5080592;28;25079;-80
2023/02/20 11:23:34;;;;;;;27.38;13.52;;;7.10;99.90;;;;;;5092052;28;25108;-79
2023/02/20 11:26:26;;;;;;;22.42;11.73;;;7.10;99.90;;;;;;5098935;28;25052;-79
2023/02/20 11:29:15;;;;;;;26.75;12.93;;;7.10;99.90;;;;;;5080964;28;25089;-80
2023/02/20 11:31:46;;;;;;;23.45;11.98;;;7.10;99.90;;;;;;5080666;28;25067;-84
2023/02/20 11:34:30;;;;;;;21.42;11.30;;;7.10;99.90;;;;;;5080682;28;25047;-85
2023/02/20 11:37:06;;;;;;;20.52;10.60;;;7.10;99.90;;;;;;5076863;28;25057;-83
2023/02/20 11:39:34;;;;;;;32.20;13.27;;;7.10;99.90;;;;;;5077486;28;25058;-83
2023/02/20 11:42:19;;;;;;;20.90;9.93;;;7.10;99.90;;;;;;5079660;28;25062;-83
2023/02/20 11:45:07;;;;;;;23.60;12.02;;;7.10;99.90;;;;;;5078671;28;25073;-83
2023/02/20 11:47:37;;;;;;;28.23;13.90;;;7.10;99.90;;;;;;5080018;28;25062;-81
2023/02/20 11:50:19;;;;;;;25.08;12.30;;;7.00;99.90;;;;;;5077721;28;25114;-84
2023/02/20 11:52:56;;;;;;;25.17;12.80;;;7.00;99.90;;;;;;5077217;28;25067;-80
2023/02/20 11:55:28;;;;;;;27.17;12.55;;;7.10;99.90;;;;;;5076935;28;25115;-80
2023/02/20 11:57:56;;;;;;;22.30;11.32;;;7.10;99.90;;;;;;5076559;28;25060;-79
2023/02/20 12:00:28;;;;;;;20.77;12.75;;;7.20;99.90;;;;;;5078331;28;25072;-78
2023/02/20 12:03:04;;;;;;;25.17;13.32;;;7.20;99.90;;;;;;5076645;28;25118;-79
2023/02/20 12:05:42;;;;;;;26.48;11.90;;;7.20;99.90;;;;;;5077671;28;25121;-79
2023/02/20 12:08:37;;;;;;;22.75;11.90;;;7.20;99.90;;;;;;5077731;28;25054;-81
2023/02/20 12:11:17;;;;;;;26.73;14.52;;;7.30;99.90;;;;;;5077976;28;25049;-81
2023/02/20 12:13:47;;;;;;;24.02;13.18;;;7.30;99.90;;;;;;5078281;28;25103;-84
2023/02/20 12:16:52;;;;;;;24.20;13.80;;;7.30;99.90;;;;;;5076063;28;25104;-83
2023/02/20 12:19:37;;;;;;;23.83;12.95;;;7.30;99.90;;;;;;5077888;28;25050;-81
2023/02/20 12:22:21;;;;;;;53.42;16.63;;;7.30;99.90;;;;;;5077561;28;25056;-82
2023/02/20 12:25:24;;;;;;;32.20;15.38;;;7.30;99.90;;;;;;5076388;28;25119;-84
2023/02/20 12:28:12;;;;;;;29.20;14.30;;;7.30;99.90;;;;;;5077678;28;25078;-84
2023/02/20 12:31:09;;;;;;;25.20;12.73;;;7.30;99.90;;;;;;5077506;28;25089;-82
2023/02/20 12:34:15;;;;;;;27.65;14.50;;;7.30;99.90;;;;;;5077274;28;25060;-82
2023/02/20 12:37:19;;;;;;;26.60;13.23;;;7.40;99.90;;;;;;5079166;28;25083;-82
2023/02/20 12:39:47;;;;;;;31.70;15.75;;;7.40;99.90;;;;;;5080077;28;25141;-82
2023/02/20 12:42:50;;;;;;;35.33;15.35;;;7.40;99.90;;;;;;5079246;28;25087;-82
2023/02/20 12:45:23;;;;;;;30.65;13.48;;;7.30;99.90;;;;;;5097491;28;25096;-82
2023/02/20 12:48:02;;;;;;;36.08;13.88;;;7.30;99.90;;;;;;5078014;28;25050;-82
2023/02/20 12:50:40;;;;;;;32.40;14.93;;;7.30;99.90;;;;;;5097081;28;25139;-81
2023/02/20 12:53:37;;;;;;;32.13;15.00;;;7.30;99.90;;;;;;5097044;28;25115;-82
2023/02/20 12:56:23;;;;;;;25.05;14.10;;;7.20;99.90;;;;;;5043359;28;25062;-82
2023/02/20 12:59:29;;;;;;;29.27;14.80;;;7.20;99.90;;;;;;5097426;28;25114;-82
2023/02/20 13:02:21;;;;;;;34.72;14.23;;;7.20;99.90;;;;;;5035026;28;25072;-90
2023/02/20 13:04:55;;;;;;;30.83;15.88;;;7.30;99.90;;;;;;5094006;28;25077;-83
2023/02/20 13:07:47;;;;;;;27.67;14.10;;;7.30;99.90;;;;;;5096918;28;25128;-80
2023/02/20 13:10:27;;;;;;;28.95;14.15;;;7.30;99.90;;;;;;5096893;28;25079;-81
2023/02/20 13:12:56;;;;;;;47.33;17.70;;;7.30;99.90;;;;;;5096395;28;25119;-80
2023/02/20 13:15:23;;;;;;;34.40;16.15;;;7.30;99.90;;;;;;5079048;28;25096;-80
2023/02/20 13:18:11;;;;;;;28.20;16.55;;;7.30;99.90;;;;;;5078725;28;25097;-80
2023/02/20 13:20:50;;;;;;;31.17;16.17;;;7.30;99.90;;;;;;5096947;28;25059;-81
2023/02/20 13:23:18;;;;;;;29.85;15.13;;;7.30;99.90;;;;;;5096827;28;25083;-83
2023/02/20 13:25:47;;;;;;;33.03;16.13;;;7.30;99.90;;;;;;5078737;28;25082;-82
2023/02/20 13:28:33;;;;;;;32.70;14.70;;;7.40;99.90;;;;;;5096814;28;25074;-85
2023/02/20 13:31:18;;;;;;;33.95;17.60;;;7.40;99.90;;;;;;5078646;28;25077;-80
2023/02/20 13:33:50;;;;;;;30.52;16.60;;;7.40;99.90;;;;;;5078623;28;25063;-82
2023/02/20 13:36:30;;;;;;;33.90;14.90;;;7.30;99.90;;;;;;5096784;28;25077;-80